Time;durP1;ratioP1;P1;durP2;ratioP2;P2;SDS_P1;SDS_P2;PMS_P1;PMS_P2;Temp;Humidity;BMP_temperature;BMP_pressure;BME280_temperature;BME280_humidity;BME280_pressure;Samples;Min_cycle;Max_cycle;Signal;HPM_P1;HPM_P2
2023/12/23 00:02:20;;;;;;;0.20;0.20;;;;;;;;;;5117622;28;20267;-66
2023/12/23 00:04:47;;;;;;;0.30;0.30;;;;;;;;;;5117420;28;20230;-66
2023/12/23 00:07:15;;;;;;;0.85;0.28;;;;;;;;;;5117521;28;20207;-66
2023/12/23 00:09:44;;;;;;;0.20;0.20;;;;;;;;;;5117058;28;20256;-66
2023/12/23 00:12:12;;;;;;;0.32;0.30;;;;;;;;;;5117355;28;20256;-66
2023/12/23 00:14:39;;;;;;;0.60;0.38;;;;;;;;;;5117017;28;20211;-66
2023/12/23 00:17:07;;;;;;;0.45;0.30;;;;;;;;;;5117414;28;20242;-66
2023/12/23 00:19:34;;;;;;;0.20;0.20;;;;;;;;;;5117427;28;20218;-66
2023/12/23 00:22:02;;;;;;;0.30;0.28;;;;;;;;;;5117735;28;20306;-66
2023/12/23 00:24:31;;;;;;;0.20;0.20;;;;;;;;;;5116944;28;20322;-66
2023/12/23 00:27:00;;;;;;;0.38;0.30;;;;;;;;;;5117293;28;20217;-66
2023/12/23 00:29:28;;;;;;;0.30;0.30;;;;;;;;;;5116761;28;20305;-66
2023/12/23 00:31:55;;;;;;;0.20;0.20;;;;;;;;;;5117124;28;20281;-66
2023/12/23 00:34:23;;;;;;;0.20;0.20;;;;;;;;;;5121047;28;20199;-66
2023/12/23 00:36:50;;;;;;;0.60;0.30;;;;;;;;;;5121292;28;20233;-66
2023/12/23 00:39:19;;;;;;;0.20;0.20;;;;;;;;;;5121632;28;20280;-66
2023/12/23 00:41:47;;;;;;;0.20;0.20;;;;;;;;;;5121312;28;20203;-66
2023/12/23 00:44:16;;;;;;;0.20;0.20;;;;;;;;;;5121139;28;20325;-66
2023/12/23 00:46:44;;;;;;;0.30;0.30;;;;;;;;;;5121217;28;20238;-66
2023/12/23 00:49:11;;;;;;;0.40;0.40;;;;;;;;;;5121109;28;20222;-66
2023/12/23 00:51:38;;;;;;;0.30;0.30;;;;;;;;;;5121290;28;20306;-66
2023/12/23 00:54:06;;;;;;;0.70;0.30;;;;;;;;;;5120672;28;20199;-67
2023/12/23 00:56:34;;;;;;;0.20;0.20;;;;;;;;;;5120903;28;20203;-66
2023/12/23 00:59:01;;;;;;;0.30;0.30;;;;;;;;;;5120550;28;20238;-66
2023/12/23 01:01:30;;;;;;;0.35;0.20;;;;;;;;;;5121359;28;20203;-66
2023/12/23 01:03:58;;;;;;;0.30;0.30;;;;;;;;;;5120863;28;20234;-66
2023/12/23 01:06:25;;;;;;;0.30;0.20;;;;;;;;;;5121379;28;20528;-66
2023/12/23 01:08:53;;;;;;;0.43;0.35;;;;;;;;;;5120732;28;20206;-66
2023/12/23 01:11:20;;;;;;;0.25;0.25;;;;;;;;;;5121063;28;20214;-66
2023/12/23 01:13:48;;;;;;;0.30;0.30;;;;;;;;;;5120661;28;20199;-66
2023/12/23 01:16:15;;;;;;;0.65;0.40;;;;;;;;;;5120311;28;20214;-66
2023/12/23 01:18:44;;;;;;;0.22;0.22;;;;;;;;;;5120465;28;20211;-66
2023/12/23 01:21:12;;;;;;;0.30;0.28;;;;;;;;;;5120972;28;20593;-66
2023/12/23 01:23:40;;;;;;;0.20;0.20;;;;;;;;;;5120721;28;20270;-66
2023/12/23 01:26:08;;;;;;;0.30;0.30;;;;;;;;;;5120548;28;20562;-66
2023/12/23 01:28:35;;;;;;;0.20;0.20;;;;;;;;;;5120251;28;20207;-66
2023/12/23 01:31:03;;;;;;;0.20;0.20;;;;;;;;;;5120439;28;20266;-66
2023/12/23 01:33:31;;;;;;;0.30;0.30;;;;;;;;;;5120340;28;20238;-66
2023/12/23 01:36:02;;;;;;;0.28;0.20;;;;;;;;;;5120366;28;20203;-66
2023/12/23 01:38:30;;;;;;;0.40;0.22;;;;;;;;;;5119703;28;20195;-66
2023/12/23 01:40:58;;;;;;;0.30;0.28;;;;;;;;;;5119460;28;20479;-66
2023/12/23 01:43:25;;;;;;;0.30;0.30;;;;;;;;;;5119901;28;20227;-66
2023/12/23 01:45:55;;;;;;;0.38;0.30;;;;;;;;;;5119610;28;20211;-66
2023/12/23 01:48:23;;;;;;;0.30;0.30;;;;;;;;;;5120242;28;20297;-66
2023/12/23 01:50:51;;;;;;;0.20;0.20;;;;;;;;;;5120157;28;20308;-66
2023/12/23 01:53:20;;;;;;;0.25;0.25;;;;;;;;;;5120122;28;20202;-66
2023/12/23 01:55:47;;;;;;;0.38;0.30;;;;;;;;;;5120374;28;20210;-66
2023/12/23 01:58:15;;;;;;;0.30;0.30;;;;;;;;;;5120176;28;20531;-66
2023/12/23 02:00:43;;;;;;;0.20;0.20;;;;;;;;;;5120454;28;20203;-66
2023/12/23 02:03:11;;;;;;;0.30;0.30;;;;;;;;;;5119662;28;20231;-66
2023/12/23 02:05:38;;;;;;;0.88;0.20;;;;;;;;;;5119892;28;20268;-66
2023/12/23 02:08:06;;;;;;;0.20;0.20;;;;;;;;;;5120184;28;20211;-66
2023/12/23 02:10:35;;;;;;;0.30;0.30;;;;;;;;;;5119893;28;20238;-66
2023/12/23 02:13:09;;;;;;;0.30;0.30;;;;;;;;;;5120045;28;20271;-67
2023/12/23 02:15:38;;;;;;;0.30;0.20;;;;;;;;;;5120138;28;20244;-66
2023/12/23 02:18:06;;;;;;;0.20;0.20;;;;;;;;;;5119826;28;20203;-66
2023/12/23 02:20:33;;;;;;;0.20;0.20;;;;;;;;;;5119641;28;20330;-66
2023/12/23 02:23:02;;;;;;;0.30;0.20;;;;;;;;;;5119527;28;20211;-66
2023/12/23 02:25:30;;;;;;;0.20;0.20;;;;;;;;;;5119744;28;20264;-66
2023/12/23 02:27:58;;;;;;;0.30;0.30;;;;;;;;;;5119526;28;20604;-66
2023/12/23 02:30:26;;;;;;;0.20;0.20;;;;;;;;;;5119258;28;20596;-66
2023/12/23 02:32:54;;;;;;;0.30;0.30;;;;;;;;;;5119491;28;20233;-66
2023/12/23 02:35:25;;;;;;;0.20;0.20;;;;;;;;;;5119406;28;20238;-66
2023/12/23 02:37:52;;;;;;;0.30;0.30;;;;;;;;;;5119107;28;20217;-66
2023/12/23 02:40:21;;;;;;;0.35;0.35;;;;;;;;;;5119277;28;20203;-66
2023/12/23 02:42:49;;;;;;;0.35;0.35;;;;;;;;;;5119441;28;20267;-66
2023/12/23 02:45:16;;;;;;;0.30;0.30;;;;;;;;;;5119084;28;20223;-66
2023/12/23 02:47:44;;;;;;;0.30;0.20;;;;;;;;;;5119705;28;20238;-66
2023/12/23 02:50:11;;;;;;;0.30;0.30;;;;;;;;;;5119424;28;20646;-66
2023/12/23 02:52:39;;;;;;;0.63;0.30;;;;;;;;;;5118954;28;20199;-66
2023/12/23 02:55:07;;;;;;;0.30;0.30;;;;;;;;;;5118647;28;20263;-67
2023/12/23 02:57:36;;;;;;;0.50;0.30;;;;;;;;;;5117761;28;20624;-66
2023/12/23 03:00:04;;;;;;;0.20;0.20;;;;;;;;;;5118593;28;20589;-67
2023/12/23 03:02:31;;;;;;;0.32;0.30;;;;;;;;;;5119005;28;20230;-66
2023/12/23 03:04:58;;;;;;;0.22;0.20;;;;;;;;;;5118707;28;20227;-66
2023/12/23 03:07:26;;;;;;;0.30;0.20;;;;;;;;;;5118937;28;20210;-66
2023/12/23 03:09:54;;;;;;;0.13;0.13;;;;;;;;;;5118705;28;20202;-66
2023/12/23 03:12:21;;;;;;;0.40;0.30;;;;;;;;;;5118538;28;20603;-66
2023/12/23 03:14:50;;;;;;;0.40;0.40;;;;;;;;;;5118896;28;20199;-66
2023/12/23 03:17:17;;;;;;;0.20;0.20;;;;;;;;;;5118793;28;20241;-66
2023/12/23 03:19:45;;;;;;;0.38;0.20;;;;;;;;;;5118762;28;20238;-66
2023/12/23 03:22:12;;;;;;;0.40;0.30;;;;;;;;;;5118487;28;20207;-67
2023/12/23 03:24:40;;;;;;;0.20;0.20;;;;;;;;;;5118347;28;20248;-66
2023/12/23 03:27:08;;;;;;;0.20;0.20;;;;;;;;;;5118663;28;20514;-67
2023/12/23 03:29:35;;;;;;;0.20;0.20;;;;;;;;;;5118681;28;20297;-66
2023/12/23 03:32:04;;;;;;;0.30;0.30;;;;;;;;;;5118308;28;20660;-66
2023/12/23 03:34:32;;;;;;;0.20;0.20;;;;;;;;;;5118379;28;20209;-66
2023/12/23 03:37:00;;;;;;;0.13;0.13;;;;;;;;;;5118186;28;20199;-66
2023/12/23 03:39:27;;;;;;;0.10;0.10;;;;;;;;;;5117962;28;20294;-66
2023/12/23 03:41:55;;;;;;;0.30;0.30;;;;;;;;;;5118238;28;20203;-66
2023/12/23 03:44:22;;;;;;;0.30;0.30;;;;;;;;;;5118138;28;20791;-66
2023/12/23 03:46:50;;;;;;;0.30;0.20;;;;;;;;;;5118319;28;20203;-66
2023/12/23 03:49:19;;;;;;;0.60;0.30;;;;;;;;;;5118204;28;20225;-67
2023/12/23 03:51:46;;;;;;;0.25;0.25;;;;;;;;;;5118268;28;20235;-66
2023/12/23 03:54:14;;;;;;;0.20;0.20;;;;;;;;;;5117831;28;20199;-66
2023/12/23 03:56:41;;;;;;;0.20;0.20;;;;;;;;;;5117572;28;20293;-66
2023/12/23 03:59:09;;;;;;;0.20;0.20;;;;;;;;;;5117440;28;20247;-66
2023/12/23 04:01:36;;;;;;;0.20;0.20;;;;;;;;;;5116797;28;20207;-67
2023/12/23 04:04:05;;;;;;;0.20;0.20;;;;;;;;;;5117783;28;20233;-66
2023/12/23 04:06:33;;;;;;;0.50;0.40;;;;;;;;;;5117540;28;20235;-66
2023/12/23 04:09:00;;;;;;;0.20;0.20;;;;;;;;;;5116491;28;20203;-66
2023/12/23 04:11:27;;;;;;;0.28;0.10;;;;;;;;;;5117589;28;20199;-67
2023/12/23 04:13:55;;;;;;;0.28;0.28;;;;;;;;;;5117956;28;20199;-66
2023/12/23 04:16:23;;;;;;;0.30;0.30;;;;;;;;;;5117764;28;20203;-66
2023/12/23 04:18:50;;;;;;;0.20;0.20;;;;;;;;;;5117794;28;20621;-66
2023/12/23 04:21:18;;;;;;;0.28;0.20;;;;;;;;;;5117569;28;20203;-66
2023/12/23 04:23:47;;;;;;;0.20;0.20;;;;;;;;;;5117289;28;20202;-66
2023/12/23 04:26:14;;;;;;;0.20;0.20;;;;;;;;;;5117512;28;20210;-66
2023/12/23 04:28:42;;;;;;;0.30;0.20;;;;;;;;;;5117519;28;20203;-66
2023/12/23 04:31:10;;;;;;;0.20;0.20;;;;;;;;;;5117734;28;20256;-66
2023/12/23 04:33:37;;;;;;;0.28;0.20;;;;;;;;;;5117806;28;20525;-66
2023/12/23 04:36:05;;;;;;;0.20;0.20;;;;;;;;;;5117478;28;20235;-66
2023/12/23 04:38:32;;;;;;;0.60;0.30;;;;;;;;;;5118054;28;20203;-67
2023/12/23 04:41:01;;;;;;;0.20;0.20;;;;;;;;;;5117688;28;20203;-66
2023/12/23 04:43:30;;;;;;;0.40;0.25;;;;;;;;;;5117557;28;20203;-66
2023/12/23 04:45:57;;;;;;;0.22;0.20;;;;;;;;;;5117426;28;20615;-66
2023/12/23 04:48:26;;;;;;;0.20;0.20;;;;;;;;;;5117214;28;20203;-67
2023/12/23 04:50:53;;;;;;;0.63;0.25;;;;;;;;;;5117059;28;20203;-66
2023/12/23 04:53:21;;;;;;;0.55;0.30;;;;;;;;;;5117573;28;20203;-66
2023/12/23 04:55:49;;;;;;;1.00;0.30;;;;;;;;;;5117293;28;20252;-66
2023/12/23 04:58:18;;;;;;;0.75;0.20;;;;;;;;;;5117144;28;20231;-66
2023/12/23 05:00:47;;;;;;;0.22;0.22;;;;;;;;;;5117581;28;20234;-66
2023/12/23 05:03:14;;;;;;;0.82;0.30;;;;;;;;;;5117083;28;20293;-66
2023/12/23 05:05:42;;;;;;;0.30;0.30;;;;;;;;;;5117439;28;20234;-66
2023/12/23 05:08:09;;;;;;;0.28;0.28;;;;;;;;;;5117109;28;20207;-66
2023/12/23 05:10:37;;;;;;;0.38;0.22;;;;;;;;;;5116903;28;20505;-66
2023/12/23 05:13:05;;;;;;;0.25;0.25;;;;;;;;;;5117330;28;20203;-66
2023/12/23 05:15:33;;;;;;;0.55;0.20;;;;;;;;;;5117015;28;20199;-66
2023/12/23 05:18:01;;;;;;;0.20;0.20;;;;;;;;;;5116386;28;20203;-66
2023/12/23 05:20:28;;;;;;;0.20;0.20;;;;;;;;;;5119470;28;20218;-66
2023/12/23 05:22:56;;;;;;;0.30;0.30;;;;;;;;;;5120689;28;20203;-66
2023/12/23 05:25:23;;;;;;;0.25;0.20;;;;;;;;;;5120128;28;20234;-66
2023/12/23 05:27:50;;;;;;;0.30;0.30;;;;;;;;;;5120755;28;20577;-66
2023/12/23 05:30:18;;;;;;;0.50;0.30;;;;;;;;;;5120910;28;20203;-66
2023/12/23 05:32:46;;;;;;;1.25;0.20;;;;;;;;;;5120262;28;20222;-66
2023/12/23 05:35:14;;;;;;;0.22;0.20;;;;;;;;;;5120768;28;20218;-66
2023/12/23 05:37:41;;;;;;;0.20;0.20;;;;;;;;;;5120910;28;20222;-66
2023/12/23 05:40:10;;;;;;;0.40;0.30;;;;;;;;;;5120334;28;20237;-67
2023/12/23 05:42:37;;;;;;;0.50;0.32;;;;;;;;;;5120134;28;20214;-66
2023/12/23 05:45:05;;;;;;;0.70;0.22;;;;;;;;;;5120443;28;20623;-66
2023/12/23 05:47:33;;;;;;;0.80;0.30;;;;;;;;;;5120348;28;20203;-66
2023/12/23 05:50:02;;;;;;;0.95;0.20;;;;;;;;;;5120751;28;20584;-66
2023/12/23 05:52:29;;;;;;;0.35;0.30;;;;;;;;;;5120441;28;20214;-66
2023/12/23 05:54:57;;;;;;;0.30;0.20;;;;;;;;;;5120309;28;20207;-66
2023/12/23 05:57:25;;;;;;;0.70;0.30;;;;;;;;;;5120126;28;20577;-66
2023/12/23 05:59:52;;;;;;;0.22;0.20;;;;;;;;;;5120350;28;20222;-66
2023/12/23 06:02:19;;;;;;;0.30;0.20;;;;;;;;;;5119851;28;20210;-66
2023/12/23 06:04:47;;;;;;;0.32;0.20;;;;;;;;;;5120060;28;20223;-66
2023/12/23 06:07:16;;;;;;;0.30;0.30;;;;;;;;;;5119700;28;20211;-66
2023/12/23 06:09:43;;;;;;;0.28;0.20;;;;;;;;;;5119610;28;20591;-66
2023/12/23 06:12:11;;;;;;;0.90;0.43;;;;;;;;;;5120047;28;20202;-66
2023/12/23 06:14:38;;;;;;;0.45;0.30;;;;;;;;;;5119638;28;20207;-66
2023/12/23 06:17:05;;;;;;;0.30;0.30;;;;;;;;;;5119866;28;20210;-66
2023/12/23 06:19:32;;;;;;;0.20;0.20;;;;;;;;;;5120176;28;20209;-66
2023/12/23 06:21:59;;;;;;;0.30;0.30;;;;;;;;;;5119725;28;20581;-66
2023/12/23 06:24:28;;;;;;;0.30;0.20;;;;;;;;;;5119329;28;20203;-66
2023/12/23 06:26:55;;;;;;;0.30;0.20;;;;;;;;;;5119555;28;20203;-66
2023/12/23 06:29:23;;;;;;;0.35;0.30;;;;;;;;;;5119697;28;20558;-66
2023/12/23 06:31:50;;;;;;;0.63;0.35;;;;;;;;;;5118762;28;20203;-66
2023/12/23 06:34:18;;;;;;;0.30;0.30;;;;;;;;;;5118941;28;20221;-66
2023/12/23 06:36:45;;;;;;;0.30;0.30;;;;;;;;;;5119405;28;20202;-66
2023/12/23 06:39:12;;;;;;;0.50;0.30;;;;;;;;;;5119506;28;20216;-66
2023/12/23 06:41:41;;;;;;;0.30;0.30;;;;;;;;;;5119125;28;20217;-66
2023/12/23 06:44:08;;;;;;;0.20;0.20;;;;;;;;;;5119117;28;20210;-66
2023/12/23 06:46:36;;;;;;;0.40;0.20;;;;;;;;;;5119106;28;20223;-66
2023/12/23 06:49:03;;;;;;;0.30;0.30;;;;;;;;;;5119260;28;20207;-66
2023/12/23 06:51:31;;;;;;;0.30;0.30;;;;;;;;;;5118767;28;20199;-66
2023/12/23 06:53:58;;;;;;;0.30;0.30;;;;;;;;;;5118680;28;20206;-66
2023/12/23 06:56:25;;;;;;;0.55;0.25;;;;;;;;;;5119062;28;20206;-67
2023/12/23 06:58:54;;;;;;;0.25;0.25;;;;;;;;;;5118483;28;20253;-66
2023/12/23 07:01:21;;;;;;;0.38;0.30;;;;;;;;;;5118396;28;20214;-67
2023/12/23 07:03:48;;;;;;;0.30;0.30;;;;;;;;;;5118692;28;20195;-66
2023/12/23 07:06:16;;;;;;;0.60;0.30;;;;;;;;;;5118509;28;20222;-66
2023/12/23 07:08:43;;;;;;;0.50;0.20;;;;;;;;;;5118692;28;20217;-66
2023/12/23 07:11:11;;;;;;;0.30;0.20;;;;;;;;;;5118897;28;20210;-66
2023/12/23 07:13:39;;;;;;;0.40;0.38;;;;;;;;;;5118644;28;20265;-66
2023/12/23 07:16:09;;;;;;;0.40;0.32;;;;;;;;;;5118192;28;20494;-66
2023/12/23 07:18:36;;;;;;;0.40;0.38;;;;;;;;;;5117661;28;20203;-66
2023/12/23 07:21:03;;;;;;;0.30;0.30;;;;;;;;;;5117735;28;20202;-66
2023/12/23 07:23:31;;;;;;;0.22;0.22;;;;;;;;;;5117358;28;20642;-66
2023/12/23 07:25:58;;;;;;;0.30;0.30;;;;;;;;;;5117615;28;20233;-66
2023/12/23 07:28:25;;;;;;;0.40;0.20;;;;;;;;;;5118068;28;20225;-66
2023/12/23 07:30:53;;;;;;;0.30;0.30;;;;;;;;;;5117883;28;20206;-66
2023/12/23 07:33:22;;;;;;;0.32;0.28;;;;;;;;;;5117740;28;20203;-66
2023/12/23 07:35:50;;;;;;;0.35;0.20;;;;;;;;;;5118237;28;20210;-66
2023/12/23 07:38:17;;;;;;;0.40;0.30;;;;;;;;;;5117777;28;20206;-66
2023/12/23 07:40:45;;;;;;;0.20;0.20;;;;;;;;;;5117746;28;20219;-66
2023/12/23 07:43:12;;;;;;;0.30;0.30;;;;;;;;;;5116596;28;20203;-66
2023/12/23 07:45:39;;;;;;;0.15;0.15;;;;;;;;;;5117363;28;20223;-67
2023/12/23 07:48:07;;;;;;;0.30;0.20;;;;;;;;;;5117631;28;20229;-66
2023/12/23 07:50:35;;;;;;;0.20;0.20;;;;;;;;;;5117666;28;20207;-66
2023/12/23 07:53:03;;;;;;;0.30;0.30;;;;;;;;;;5117661;28;20203;-67
2023/12/23 07:55:30;;;;;;;0.40;0.30;;;;;;;;;;5117995;28;20520;-65
2023/12/23 07:57:59;;;;;;;0.38;0.38;;;;;;;;;;5117338;28;20227;-66
2023/12/23 08:00:26;;;;;;;0.40;0.30;;;;;;;;;;5117732;28;20234;-66
2023/12/23 08:02:54;;;;;;;0.40;0.30;;;;;;;;;;5117350;28;20210;-65
2023/12/23 08:05:21;;;;;;;1.40;0.40;;;;;;;;;;5117484;28;20219;-65
2023/12/23 08:07:50;;;;;;;0.50;0.30;;;;;;;;;;5117339;28;20576;-65
2023/12/23 08:10:18;;;;;;;0.65;0.30;;;;;;;;;;5117943;28;20203;-66
2023/12/23 08:12:45;;;;;;;1.05;0.30;;;;;;;;;;5117974;28;20256;-66
2023/12/23 08:15:12;;;;;;;0.40;0.30;;;;;;;;;;5117113;28;20202;-65
2023/12/23 08:17:41;;;;;;;0.35;0.35;;;;;;;;;;5116486;28;20195;-65
2023/12/23 08:20:09;;;;;;;1.55;0.40;;;;;;;;;;5116912;28;20203;-65
2023/12/23 08:22:36;;;;;;;0.40;0.38;;;;;;;;;;5117628;28;20203;-66
2023/12/23 08:25:05;;;;;;;0.30;0.20;;;;;;;;;;5116982;28;20203;-66
2023/12/23 08:27:33;;;;;;;0.40;0.30;;;;;;;;;;5117691;28;20210;-66
2023/12/23 08:30:00;;;;;;;0.38;0.30;;;;;;;;;;5117085;28;20210;-66
2023/12/23 08:32:28;;;;;;;1.10;0.30;;;;;;;;;;5117543;28;20541;-66
2023/12/23 08:34:56;;;;;;;0.90;0.35;;;;;;;;;;5117547;28;20202;-66
2023/12/23 08:37:24;;;;;;;0.75;0.30;;;;;;;;;;5116798;28;20234;-66
2023/12/23 08:39:51;;;;;;;0.45;0.30;;;;;;;;;;5117616;28;20199;-66
2023/12/23 08:42:20;;;;;;;2.88;0.38;;;;;;;;;;5117444;28;20203;-66
2023/12/23 08:44:47;;;;;;;0.40;0.30;;;;;;;;;;5117152;28;20342;-66
2023/12/23 08:47:15;;;;;;;0.57;0.35;;;;;;;;;;5117041;28;20686;-65
2023/12/23 08:49:43;;;;;;;1.25;0.60;;;;;;;;;;5116758;28;20203;-66
2023/12/23 08:52:10;;;;;;;1.02;0.22;;;;;;;;;;5117208;28;20210;-65
2023/12/23 08:54:38;;;;;;;0.30;0.30;;;;;;;;;;5119475;28;20213;-65
2023/12/23 08:57:05;;;;;;;1.55;0.40;;;;;;;;;;5120301;28;20203;-65
2023/12/23 08:59:34;;;;;;;0.63;0.40;;;;;;;;;;5119897;28;20231;-66
2023/12/23 09:02:03;;;;;;;0.50;0.30;;;;;;;;;;5120299;28;20203;-66
2023/12/23 09:04:31;;;;;;;0.55;0.30;;;;;;;;;;5120666;28;20268;-66
2023/12/23 09:06:59;;;;;;;2.15;0.43;;;;;;;;;;5120175;28;20636;-65
2023/12/23 09:09:26;;;;;;;0.68;0.40;;;;;;;;;;5119980;28;20247;-66
2023/12/23 09:11:53;;;;;;;1.20;0.30;;;;;;;;;;5120137;28;20203;-66
2023/12/23 09:14:21;;;;;;;0.55;0.40;;;;;;;;;;5120239;28;20203;-65
2023/12/23 09:16:50;;;;;;;0.75;0.30;;;;;;;;;;5119884;28;20199;-65
2023/12/23 09:19:17;;;;;;;1.10;0.35;;;;;;;;;;5120224;28;20210;-66
2023/12/23 09:21:45;;;;;;;0.75;0.25;;;;;;;;;;5119982;28;20544;-66
2023/12/23 09:24:12;;;;;;;0.57;0.40;;;;;;;;;;5119380;28;20203;-66
2023/12/23 09:26:41;;;;;;;0.57;0.30;;;;;;;;;;5119451;28;20667;-66
2023/12/23 09:29:08;;;;;;;0.50;0.40;;;;;;;;;;5119786;28;20203;-66
2023/12/23 09:31:36;;;;;;;0.85;0.40;;;;;;;;;;5119631;28;20229;-66
2023/12/23 09:34:05;;;;;;;0.55;0.40;;;;;;;;;;5119171;28;20229;-65
2023/12/23 09:36:32;;;;;;;0.98;0.30;;;;;;;;;;5119128;28;20207;-66
2023/12/23 09:39:00;;;;;;;0.90;0.40;;;;;;;;;;5120136;28;20207;-65
2023/12/23 09:41:27;;;;;;;0.50;0.45;;;;;;;;;;5119345;28;20723;-65
2023/12/23 09:43:55;;;;;;;0.57;0.30;;;;;;;;;;5119493;28;20198;-65
2023/12/23 09:46:22;;;;;;;0.45;0.40;;;;;;;;;;5119776;28;20230;-66
2023/12/23 09:48:50;;;;;;;0.73;0.50;;;;;;;;;;5119121;28;20210;-66
2023/12/23 09:51:19;;;;;;;0.50;0.40;;;;;;;;;;5120131;28;20214;-66
2023/12/23 09:53:47;;;;;;;1.10;0.52;;;;;;;;;;5119405;28;20203;-66
2023/12/23 09:56:15;;;;;;;0.38;0.35;;;;;;;;;;5118711;28;20264;-66
2023/12/23 09:58:45;;;;;;;0.50;0.35;;;;;;;;;;5099614;28;20236;-66
2023/12/23 10:01:12;;;;;;;0.32;0.30;;;;;;;;;;5097778;28;20300;-66
2023/12/23 10:03:39;;;;;;;0.50;0.40;;;;;;;;;;5098401;28;20206;-66
2023/12/23 10:06:07;;;;;;;0.30;0.30;;;;;;;;;;5097705;28;20227;-66
2023/12/23 10:08:36;;;;;;;0.55;0.50;;;;;;;;;;5098032;28;20214;-65
2023/12/23 10:11:03;;;;;;;2.05;0.85;;;;;;;;;;5098599;28;20203;-66
2023/12/23 10:13:30;;;;;;;0.77;0.65;;;;;;;;;;5098405;28;20204;-66
2023/12/23 10:15:58;;;;;;;0.73;0.65;;;;;;;;;;5097923;28;20601;-65
2023/12/23 10:18:26;;;;;;;0.40;0.40;;;;;;;;;;5098054;28;20222;-65
2023/12/23 10:20:53;;;;;;;0.50;0.40;;;;;;;;;;5097547;28;20214;-65
2023/12/23 10:23:20;;;;;;;0.43;0.40;;;;;;;;;;5097365;28;20200;-65
2023/12/23 10:25:49;;;;;;;0.57;0.30;;;;;;;;;;5097494;28;20227;-66
2023/12/23 10:28:17;;;;;;;0.63;0.40;;;;;;;;;;5097962;28;20196;-66
2023/12/23 10:30:48;;;;;;;0.43;0.40;;;;;;;;;;5097880;28;20210;-66
2023/12/23 10:33:17;;;;;;;0.82;0.40;;;;;;;;;;5098013;28;20277;-66
2023/12/23 10:35:46;;;;;;;0.30;0.30;;;;;;;;;;5097674;28;20600;-66
2023/12/23 10:38:16;;;;;;;0.70;0.40;;;;;;;;;;5097330;28;20217;-66
2023/12/23 10:40:44;;;;;;;0.40;0.40;;;;;;;;;;5097370;28;20200;-65
2023/12/23 10:43:14;;;;;;;0.70;0.50;;;;;;;;;;5097289;28;20230;-65
2023/12/23 10:45:43;;;;;;;1.20;0.50;;;;;;;;;;5097189;28;20204;-66
2023/12/23 10:48:11;;;;;;;0.80;0.47;;;;;;;;;;5097333;28;20204;-66
2023/12/23 10:50:39;;;;;;;0.40;0.40;;;;;;;;;;5097398;28;20204;-66
2023/12/23 10:53:08;;;;;;;0.30;0.30;;;;;;;;;;5097121;28;20200;-66
2023/12/23 10:55:39;;;;;;;0.40;0.30;;;;;;;;;;5097439;28;20294;-66
2023/12/23 10:58:07;;;;;;;1.02;0.30;;;;;;;;;;5097158;28;20663;-66
2023/12/23 11:00:36;;;;;;;1.30;0.38;;;;;;;;;;5097190;28;20208;-66
2023/12/23 11:03:04;;;;;;;1.15;0.30;;;;;;;;;;5097080;28;20241;-65
2023/12/23 11:05:32;;;;;;;1.38;0.50;;;;;;;;;;5096747;28;20243;-65
2023/12/23 11:08:01;;;;;;;1.00;0.38;;;;;;;;;;5096897;28;20219;-65
2023/12/23 11:10:30;;;;;;;1.05;0.30;;;;;;;;;;5096997;28;20244;-66
2023/12/23 11:12:58;;;;;;;0.40;0.40;;;;;;;;;;5097124;28;20475;-66
2023/12/23 11:15:25;;;;;;;0.40;0.40;;;;;;;;;;5096991;28;20211;-65
2023/12/23 11:17:54;;;;;;;1.00;0.30;;;;;;;;;;5095314;28;20202;-67
2023/12/23 11:20:40;;;;;;;0.70;0.40;;;;;;;;;;5096669;28;20204;-66
2023/12/23 11:23:30;;;;;;;0.35;0.35;;;;;;;;;;5095766;28;20200;-66
2023/12/23 11:25:58;;;;;;;0.75;0.30;;;;;;;;;;5095965;28;20596;-66
2023/12/23 11:28:26;;;;;;;0.40;0.30;;;;;;;;;;5097010;28;20477;-66
2023/12/23 11:30:54;;;;;;;0.38;0.38;;;;;;;;;;5096883;28;20299;-66
2023/12/23 11:33:24;;;;;;;0.63;0.30;;;;;;;;;;5096307;28;20507;-66
2023/12/23 11:35:52;;;;;;;0.30;0.30;;;;;;;;;;5096513;28;20298;-66
2023/12/23 11:38:21;;;;;;;0.50;0.50;;;;;;;;;;5097051;28;20203;-66
2023/12/23 11:40:49;;;;;;;0.35;0.32;;;;;;;;;;5095664;28;20268;-66
2023/12/23 11:43:16;;;;;;;0.30;0.30;;;;;;;;;;5095935;28;20208;-65
2023/12/23 11:45:45;;;;;;;0.30;0.30;;;;;;;;;;5095722;28;20204;-65
2023/12/23 11:48:14;;;;;;;0.43;0.43;;;;;;;;;;5095894;28;20227;-67
2023/12/23 11:50:43;;;;;;;0.88;0.30;;;;;;;;;;5095624;28;20208;-65
2023/12/23 11:53:11;;;;;;;0.50;0.22;;;;;;;;;;5096671;28;20195;-65
2023/12/23 11:55:39;;;;;;;0.40;0.30;;;;;;;;;;5096543;28;20643;-67
2023/12/23 11:58:06;;;;;;;0.50;0.40;;;;;;;;;;5095649;28;20235;-67
2023/12/23 12:00:37;;;;;;;0.22;0.22;;;;;;;;;;5095767;28;20235;-73
2023/12/23 12:03:05;;;;;;;0.30;0.30;;;;;;;;;;5095703;28;20243;-66
2023/12/23 12:05:32;;;;;;;0.50;0.30;;;;;;;;;;5095793;28;20221;-66
2023/12/23 12:08:01;;;;;;;0.82;0.30;;;;;;;;;;5095759;28;20230;-66
2023/12/23 12:10:28;;;;;;;0.35;0.35;;;;;;;;;;5095663;28;20203;-66
2023/12/23 12:12:56;;;;;;;0.30;0.30;;;;;;;;;;5096303;28;20203;-66
2023/12/23 12:15:24;;;;;;;0.30;0.30;;;;;;;;;;5095576;28;20212;-66
2023/12/23 12:17:52;;;;;;;0.30;0.30;;;;;;;;;;5096287;28;20203;-66
2023/12/23 12:20:20;;;;;;;0.30;0.30;;;;;;;;;;5096335;28;20203;-66
2023/12/23 12:22:48;;;;;;;0.45;0.38;;;;;;;;;;5096464;28;20203;-66
2023/12/23 12:25:17;;;;;;;0.40;0.30;;;;;;;;;;5095614;28;20243;-66
2023/12/23 12:27:44;;;;;;;0.50;0.30;;;;;;;;;;5096100;28;20238;-66
2023/12/23 12:30:12;;;;;;;0.73;0.40;;;;;;;;;;5099587;28;20214;-67
2023/12/23 12:32:43;;;;;;;0.47;0.30;;;;;;;;;;5100282;28;20210;-67
2023/12/23 12:35:12;;;;;;;0.28;0.28;;;;;;;;;;5099146;28;20211;-67
2023/12/23 12:37:40;;;;;;;0.40;0.38;;;;;;;;;;5099365;28;20200;-67
2023/12/23 12:40:10;;;;;;;1.38;0.30;;;;;;;;;;5099056;28;20605;-67
2023/12/23 12:42:39;;;;;;;0.30;0.30;;;;;;;;;;5099550;28;20199;-67
2023/12/23 12:45:07;;;;;;;0.40;0.40;;;;;;;;;;5099173;28;20203;-67
2023/12/23 12:47:38;;;;;;;0.30;0.22;;;;;;;;;;5098671;28;20227;-66
2023/12/23 12:50:07;;;;;;;0.80;0.30;;;;;;;;;;5099388;28;20269;-67
2023/12/23 12:52:35;;;;;;;0.20;0.20;;;;;;;;;;5098999;28;20204;-67
2023/12/23 12:55:04;;;;;;;1.30;0.35;;;;;;;;;;5099211;28;20508;-65
2023/12/23 12:57:31;;;;;;;0.20;0.20;;;;;;;;;;5099073;28;20654;-67
2023/12/23 13:00:00;;;;;;;0.20;0.20;;;;;;;;;;5100070;28;20273;-67
2023/12/23 13:02:27;;;;;;;1.92;0.30;;;;;;;;;;5099020;28;20204;-65
2023/12/23 13:04:55;;;;;;;0.30;0.30;;;;;;;;;;5099208;28;20211;-67
2023/12/23 13:07:24;;;;;;;0.73;0.30;;;;;;;;;;5099127;28;20687;-65
2023/12/23 13:09:51;;;;;;;0.30;0.30;;;;;;;;;;5099166;28;20230;-67
2023/12/23 13:12:18;;;;;;;0.50;0.28;;;;;;;;;;5098507;28;20199;-67
2023/12/23 13:14:46;;;;;;;0.30;0.30;;;;;;;;;;5099034;28;20200;-67
2023/12/23 13:17:14;;;;;;;0.30;0.30;;;;;;;;;;5099407;28;20192;-67
2023/12/23 13:19:42;;;;;;;1.52;0.40;;;;;;;;;;5098509;28;20215;-65
2023/12/23 13:22:10;;;;;;;1.20;0.40;;;;;;;;;;5099001;28;20204;-65
2023/12/23 13:24:37;;;;;;;0.70;0.35;;;;;;;;;;5098898;28;20489;-66
2023/12/23 13:27:06;;;;;;;1.10;0.40;;;;;;;;;;5098382;28;20220;-65
2023/12/23 13:29:33;;;;;;;0.85;0.30;;;;;;;;;;5098263;28;20586;-67
2023/12/23 13:32:00;;;;;;;0.45;0.20;;;;;;;;;;5098424;28;20203;-67
2023/12/23 13:34:29;;;;;;;0.20;0.20;;;;;;;;;;5098231;28;20199;-65
2023/12/23 13:36:56;;;;;;;0.52;0.40;;;;;;;;;;5099250;28;20196;-67
2023/12/23 13:39:24;;;;;;;0.30;0.30;;;;;;;;;;5098041;28;20297;-65
2023/12/23 13:41:51;;;;;;;0.40;0.28;;;;;;;;;;5098002;28;20203;-65
2023/12/23 13:44:18;;;;;;;1.40;0.30;;;;;;;;;;5098981;28;20771;-67
2023/12/23 13:46:48;;;;;;;0.50;0.28;;;;;;;;;;5099159;28;20211;-67
2023/12/23 13:49:15;;;;;;;0.40;0.30;;;;;;;;;;5098797;28;20208;-67
2023/12/23 13:51:44;;;;;;;0.95;0.20;;;;;;;;;;5099027;28;20214;-67
2023/12/23 13:54:12;;;;;;;1.02;0.50;;;;;;;;;;5098743;28;20203;-67
2023/12/23 13:56:39;;;;;;;0.70;0.30;;;;;;;;;;5098288;28;20223;-67
2023/12/23 13:59:07;;;;;;;1.95;0.50;;;;;;;;;;5097786;28;20621;-67
2023/12/23 14:01:34;;;;;;;0.30;0.30;;;;;;;;;;5098065;28;20202;-65
2023/12/23 14:04:02;;;;;;;1.17;0.25;;;;;;;;;;5097976;28;20207;-65
2023/12/23 14:06:29;;;;;;;0.68;0.30;;;;;;;;;;5098051;28;20204;-65
2023/12/23 14:08:58;;;;;;;0.98;0.40;;;;;;;;;;5097806;28;20223;-67
2023/12/23 14:11:25;;;;;;;1.05;0.40;;;;;;;;;;5097807;28;20577;-67
2023/12/23 14:13:53;;;;;;;0.43;0.30;;;;;;;;;;5097616;28;20203;-66
2023/12/23 14:16:20;;;;;;;0.50;0.40;;;;;;;;;;5096665;28;20203;-65
2023/12/23 14:18:47;;;;;;;1.58;0.40;;;;;;;;;;5096601;28;20196;-67
2023/12/23 14:21:15;;;;;;;1.30;0.40;;;;;;;;;;5096937;28;20214;-67
2023/12/23 14:23:42;;;;;;;0.52;0.40;;;;;;;;;;5097508;28;20597;-67
2023/12/23 14:26:11;;;;;;;1.05;0.32;;;;;;;;;;5097085;28;20204;-65
2023/12/23 14:28:39;;;;;;;0.60;0.30;;;;;;;;;;5097323;28;20238;-67
2023/12/23 14:31:06;;;;;;;0.35;0.30;;;;;;;;;;5096727;28;20211;-65
2023/12/23 14:33:33;;;;;;;0.43;0.30;;;;;;;;;;5097172;28;20199;-65
2023/12/23 14:36:02;;;;;;;0.40;0.40;;;;;;;;;;5096580;28;20196;-65
2023/12/23 14:38:29;;;;;;;0.85;0.32;;;;;;;;;;5097276;28;20581;-65
2023/12/23 14:40:57;;;;;;;0.40;0.40;;;;;;;;;;5097099;28;20200;-65
2023/12/23 14:43:25;;;;;;;0.65;0.40;;;;;;;;;;5096845;28;20210;-65
2023/12/23 14:45:53;;;;;;;0.20;0.20;;;;;;;;;;5096924;28;20195;-65
2023/12/23 14:48:20;;;;;;;0.82;0.40;;;;;;;;;;5096682;28;20655;-68